Time;durP1;ratioP1;P1;durP2;ratioP2;P2;SDS_P1;SDS_P2;PMS_P1;PMS_P2;Temp;Humidity;BMP_temperature;BMP_pressure;BME280_temperature;BME280_humidity;BME280_pressure;Samples;Min_cycle;Max_cycle;Signal;HPM_P1;HPM_P2
2022/04/21 07:01:14;;;;;;;9.65;5.78;;;22.90;65.40;;;;;;6220568;28;87055;-69
2022/04/21 07:04:17;;;;;;;9.15;5.75;;;23.00;65.40;;;;;;6238324;27;89438;-69
2022/04/21 07:07:20;;;;;;;8.45;5.55;;;23.00;65.80;;;;;;6224259;27;89524;-70
2022/04/21 07:10:22;;;;;;;8.98;6.05;;;23.00;70.50;;;;;;6249084;27;88377;-67
2022/04/21 07:13:24;;;;;;;8.02;5.53;;;23.00;69.60;;;;;;6150596;28;89031;-70
2022/04/21 07:16:28;;;;;;;7.63;5.68;;;23.00;67.60;;;;;;6120725;28;89121;-70
2022/04/21 07:19:30;;;;;;;8.02;5.50;;;23.00;67.20;;;;;;6124395;28;90454;-70
2022/04/21 07:22:32;;;;;;;9.07;5.68;;;23.00;66.70;;;;;;6128813;28;89148;-70
2022/04/21 07:25:35;;;;;;;8.00;5.22;;;23.00;66.70;;;;;;6114353;28;87981;-70
2022/04/21 07:28:37;;;;;;;9.80;5.60;;;23.00;66.40;;;;;;6131316;28;89097;-69
2022/04/21 07:31:41;;;;;;;6.85;5.30;;;23.00;66.30;;;;;;6127395;28;89208;-70
2022/04/21 07:34:44;;;;;;;8.40;5.50;;;23.00;66.20;;;;;;6126125;28;89752;-70
2022/04/21 07:37:46;;;;;;;8.77;5.35;;;23.00;65.90;;;;;;6129591;28;88223;-70
2022/04/21 07:40:52;;;;;;;7.03;5.00;;;23.00;65.90;;;;;;6129503;28;87998;-70
2022/04/21 07:43:54;;;;;;;7.72;5.03;;;23.10;65.80;;;;;;6127591;28;88093;-70
2022/04/21 07:46:58;;;;;;;5.85;4.70;;;23.10;65.70;;;;;;6136401;28;89053;-69
2022/04/21 07:50:00;;;;;;;10.60;5.07;;;23.10;65.80;;;;;;6121582;28;90050;-70
2022/04/21 07:53:14;;;;;;;7.60;4.95;;;23.10;65.90;;;;;;6132859;28;88985;-70
2022/04/21 07:56:16;;;;;;;6.82;4.75;;;23.10;65.70;;;;;;6124805;28;89152;-70
2022/04/21 07:59:20;;;;;;;6.22;4.60;;;23.10;65.60;;;;;;6125190;28;89037;-69
2022/04/21 08:02:24;;;;;;;7.82;4.63;;;23.10;65.70;;;;;;6125824;28;88932;-69
2022/04/21 08:05:26;;;;;;;7.30;4.95;;;23.10;65.60;;;;;;6114918;28;89036;-70
2022/04/21 08:08:28;;;;;;;5.60;4.40;;;23.10;65.50;;;;;;6125599;28;89109;-70
2022/04/21 08:11:30;;;;;;;6.00;4.15;;;23.10;65.60;;;;;;6136937;28;87233;-70
2022/04/21 08:14:32;;;;;;;5.90;4.70;;;23.10;65.60;;;;;;6115563;28;88066;-70
2022/04/21 08:17:36;;;;;;;6.13;4.70;;;23.10;65.70;;;;;;6183736;28;87808;-70
2022/04/21 08:20:38;;;;;;;5.30;4.28;;;23.10;65.60;;;;;;6186063;28;88103;-70
2022/04/21 08:23:40;;;;;;;6.03;4.60;;;23.10;65.60;;;;;;6184290;28;89005;-70
2022/04/21 08:33:22;;;;;;;5.43;4.32;;;23.10;65.50;;;;;;6175028;28;87329;-68
2022/04/21 08:36:25;;;;;;;5.38;4.15;;;23.10;65.60;;;;;;6184377;28;89105;-70
2022/04/21 08:39:27;;;;;;;4.78;4.20;;;23.10;65.70;;;;;;6173145;28;89426;-69
2022/04/21 08:42:31;;;;;;;7.28;4.65;;;23.20;65.70;;;;;;6185086;28;88340;-70
2022/04/21 08:45:34;;;;;;;5.45;3.92;;;23.10;65.70;;;;;;6183063;28;88048;-70
2022/04/21 08:48:37;;;;;;;5.40;4.20;;;23.20;65.80;;;;;;6184075;28;89071;-70
2022/04/21 08:51:39;;;;;;;4.47;3.92;;;23.10;65.70;;;;;;6184520;28;90046;-70
2022/04/21 08:54:42;;;;;;;5.15;4.20;;;23.20;65.70;;;;;;6183348;28;89180;-70
2022/04/21 08:57:44;;;;;;;5.50;4.15;;;23.20;65.80;;;;;;6184728;28;87804;-70
2022/04/21 09:00:47;;;;;;;4.93;4.20;;;23.20;65.90;;;;;;6183192;28;89027;-69
2022/04/21 09:03:50;;;;;;;5.32;4.20;;;23.10;65.70;;;;;;6177772;28;87895;-69
2022/04/21 09:06:52;;;;;;;5.72;4.30;;;23.20;65.80;;;;;;6183402;28;88993;-70
2022/04/21 09:10:05;;;;;;;4.57;3.83;;;23.20;65.80;;;;;;6185022;28;89095;-70
2022/04/21 09:13:07;;;;;;;5.57;4.53;;;23.20;65.90;;;;;;6183492;28;88242;-70
2022/04/21 09:16:11;;;;;;;4.28;3.63;;;23.10;65.80;;;;;;6174635;28;89091;-70
2022/04/21 09:19:15;;;;;;;4.88;3.80;;;23.20;65.90;;;;;;6183520;28;89129;-70
2022/04/21 09:22:18;;;;;;;5.65;4.20;;;23.20;65.90;;;;;;6184428;28;89945;-69
2022/04/21 09:25:20;;;;;;;4.05;3.50;;;23.10;65.90;;;;;;6187366;28;88902;-71
2022/04/21 09:28:24;;;;;;;5.78;4.07;;;23.20;67.20;;;;;;6187250;28;88879;-70
2022/04/21 09:31:27;;;;;;;13.02;4.40;;;23.20;68.30;;;;;;6182793;28;89058;-69
2022/04/21 09:34:30;;;;;;;4.88;4.03;;;23.20;67.20;;;;;;6184099;28;89074;-71
2022/04/21 14:44:58;;;;;;;3.95;2.70;;;22.70;65.00;;;;;;6008958;29;87399;-68
2022/04/21 14:48:01;;;;;;;3.95;2.70;;;22.70;65.60;;;;;;5990467;29;89167;-68
2022/04/21 14:51:04;;;;;;;2.72;2.53;;;22.70;65.20;;;;;;5988395;29;89878;-69
2022/04/21 14:54:06;;;;;;;6.15;2.65;;;22.70;65.00;;;;;;5988216;29;89258;-69
2022/04/21 14:57:10;;;;;;;6.55;2.67;;;22.70;64.80;;;;;;5988925;29;89218;-68
2022/04/21 15:00:13;;;;;;;2.92;2.60;;;22.70;64.70;;;;;;5990089;29;89216;-67
2022/04/21 15:03:17;;;;;;;3.47;2.47;;;22.70;64.70;;;;;;5977032;29;89402;-67
2022/04/21 15:06:19;;;;;;;4.22;2.67;;;22.70;64.70;;;;;;5970781;29;87018;-67
2022/04/21 15:09:20;;;;;;;4.10;2.60;;;22.70;64.80;;;;;;5969592;29;87969;-70
2022/04/21 15:12:24;;;;;;;3.55;2.60;;;22.70;64.90;;;;;;5982666;29;87258;-69
2022/04/21 15:15:26;;;;;;;2.78;2.40;;;22.70;65.00;;;;;;5992523;29;86953;-70
2022/04/21 15:18:29;;;;;;;3.22;2.40;;;22.70;65.00;;;;;;5993612;29;89096;-70
2022/04/21 15:21:31;;;;;;;3.05;2.25;;;22.70;65.00;;;;;;5991843;29;90553;-70
2022/04/21 15:24:33;;;;;;;5.22;2.45;;;22.70;64.90;;;;;;5993006;29;88118;-70
2022/04/21 15:27:36;;;;;;;4.82;2.08;;;22.70;64.90;;;;;;5994731;29;89571;-70
2022/04/21 15:30:40;;;;;;;2.53;2.28;;;22.60;64.90;;;;;;5998302;29;88976;-69
2022/04/21 15:33:42;;;;;;;3.10;2.20;;;22.70;64.90;;;;;;5996223;29;89240;-70
2022/04/21 15:36:45;;;;;;;3.42;2.33;;;22.70;65.00;;;;;;5996516;29;89080;-70
2022/04/21 15:39:48;;;;;;;2.40;2.20;;;22.70;65.00;;;;;;5995323;29;89156;-70
2022/04/21 15:42:52;;;;;;;2.63;2.13;;;22.70;65.20;;;;;;5998138;29;88427;-70
2022/04/21 15:45:54;;;;;;;4.63;2.30;;;22.70;65.00;;;;;;6002869;29;89200;-70
2022/04/21 15:48:56;;;;;;;2.42;2.22;;;22.60;65.00;;;;;;5998073;29;89129;-70
2022/04/21 15:51:58;;;;;;;2.72;2.40;;;22.60;65.00;;;;;;5995366;29;90253;-70
2022/04/21 16:01:40;;;;;;;2.38;2.17;;;22.70;65.20;;;;;;5997840;29;87840;-68
2022/04/21 16:04:42;;;;;;;2.75;2.38;;;22.60;65.10;;;;;;5995825;29;89099;-70
2022/04/21 16:07:44;;;;;;;3.97;2.15;;;22.60;65.10;;;;;;5998220;29;89047;-70
2022/04/21 16:10:46;;;;;;;2.40;2.20;;;22.60;65.00;;;;;;5996166;29;89188;-71
2022/04/21 16:13:50;;;;;;;2.38;2.17;;;22.60;65.00;;;;;;5997713;29;88621;-71
2022/04/21 16:16:52;;;;;;;2.63;2.20;;;22.60;65.00;;;;;;5996732;29;89067;-70
2022/04/21 16:19:54;;;;;;;2.85;2.40;;;22.60;65.00;;;;;;5994969;29;89124;-70
2022/04/21 16:22:56;;;;;;;3.60;2.55;;;22.70;65.10;;;;;;5996599;29;89781;-70
2022/04/21 16:25:58;;;;;;;3.28;2.60;;;22.60;65.00;;;;;;5996176;29;89081;-71
2022/04/21 16:29:02;;;;;;;3.70;2.47;;;22.60;65.10;;;;;;5995349;29;89032;-70
2022/04/21 16:32:05;;;;;;;3.17;2.80;;;22.60;65.10;;;;;;5997719;29;89257;-70
2022/04/21 16:35:08;;;;;;;4.07;3.03;;;22.60;65.10;;;;;;5995636;29;89330;-70
2022/04/21 16:38:10;;;;;;;4.95;3.50;;;22.60;65.20;;;;;;5995149;29;89305;-70
2022/04/21 16:41:12;;;;;;;4.55;3.60;;;22.60;65.10;;;;;;5996420;29;89115;-70
2022/04/21 16:44:15;;;;;;;4.50;3.83;;;22.60;65.20;;;;;;5988802;29;88389;-70
2022/04/21 16:47:17;;;;;;;4.68;4.13;;;22.60;65.20;;;;;;5972381;29;88040;-70
2022/04/21 16:50:19;;;;;;;5.85;4.70;;;22.60;65.10;;;;;;5971539;29;89044;-69
2022/04/21 16:53:21;;;;;;;5.93;4.57;;;22.60;65.10;;;;;;5974004;29;88918;-70
2022/04/21 16:56:23;;;;;;;6.63;4.90;;;22.60;65.10;;;;;;5973321;29;89160;-69
2022/04/21 16:59:27;;;;;;;6.13;4.90;;;22.60;65.10;;;;;;5971827;29;89193;-71
2022/04/21 17:05:48;;;;;;;7.25;5.63;;;22.60;65.20;;;;;;5972515;29;87125;-70
2022/04/21 17:08:50;;;;;;;6.78;5.50;;;22.60;65.20;;;;;;5971688;29;87962;-70
2022/04/21 17:11:52;;;;;;;8.05;6.00;;;22.60;65.10;;;;;;5974320;29;89169;-71
2022/04/21 17:14:55;;;;;;;9.68;5.78;;;22.60;65.10;;;;;;5973359;29;87210;-69
2022/04/21 17:17:57;;;;;;;8.40;6.38;;;22.60;65.20;;;;;;5970933;29;89135;-70
2022/04/21 17:20:59;;;;;;;9.15;6.40;;;22.60;65.20;;;;;;5972240;29;89113;-70
2022/04/21 17:24:02;;;;;;;9.73;7.00;;;22.60;65.20;;;;;;5971620;29;90422;-70
2022/04/21 17:27:04;;;;;;;10.93;7.25;;;22.60;65.20;;;;;;5970619;29;89034;-70
2022/04/21 17:30:08;;;;;;;9.52;7.50;;;22.50;65.20;;;;;;5973261;29;89066;-70
2022/04/21 17:33:10;;;;;;;10.23;7.45;;;22.50;65.20;;;;;;5971622;29;89154;-71
2022/04/21 17:36:12;;;;;;;11.63;8.52;;;22.50;65.30;;;;;;5973390;29;88869;-70
2022/04/21 17:39:14;;;;;;;11.23;8.30;;;22.60;65.20;;;;;;5971158;29;89077;-71
2022/04/21 17:42:16;;;;;;;13.68;9.15;;;22.60;65.20;;;;;;5973517;29;89014;-71
2022/04/21 17:45:20;;;;;;;13.20;8.68;;;22.50;65.20;;;;;;5990949;29;88611;-70
2022/04/21 17:48:23;;;;;;;11.82;8.73;;;22.60;65.20;;;;;;5994518;29;89393;-70
2022/04/21 17:51:25;;;;;;;11.98;8.82;;;22.60;65.20;;;;;;5993688;29;89144;-71
2022/04/21 17:54:27;;;;;;;14.88;9.77;;;22.50;65.20;;;;;;5994152;29;90010;-71
2022/04/21 17:57:29;;;;;;;13.10;10.25;;;22.50;65.20;;;;;;5995186;29;89132;-70
